Time;durP1;ratioP1;P1;durP2;ratioP2;P2;SDS_P1;SDS_P2;PMS_P1;PMS_P2;Temp;Humidity;BMP_temperature;BMP_pressure;BME280_temperature;BME280_humidity;BME280_pressure;Samples;Min_cycle;Max_cycle;Signal;HPM_P1;HPM_P2
2022/05/06 00:01:02;;;;;;;9.23;4.53;;;9.50;99.90;;;;;;5057321;28;20071;-86
2022/05/06 00:03:28;;;;;;;7.32;3.40;;;9.40;99.90;;;;;;5057020;28;20504;-86
2022/05/06 00:05:54;;;;;;;11.27;3.65;;;9.50;99.90;;;;;;5059546;28;20056;-86
2022/05/06 00:08:20;;;;;;;8.13;3.38;;;11.70;99.90;;;;;;5058440;28;20415;-86
2022/05/06 00:10:45;;;;;;;16.20;4.28;;;11.40;99.90;;;;;;5061537;28;20106;-87
2022/05/06 00:13:11;;;;;;;8.77;3.47;;;9.30;99.90;;;;;;5060552;28;20060;-86
2022/05/06 00:15:37;;;;;;;7.88;3.40;;;11.60;99.90;;;;;;5043177;28;20052;-86
2022/05/06 00:18:03;;;;;;;9.43;3.88;;;9.30;99.90;;;;;;5060004;28;20053;-86
2022/05/06 00:20:28;;;;;;;8.20;4.07;;;9.30;99.90;;;;;;5058161;28;20392;-86
2022/05/06 00:22:57;;;;;;;8.65;3.40;;;10.40;99.90;;;;;;5053949;28;20055;-86
2022/05/06 00:25:24;;;;;;;5.65;2.95;;;9.20;99.90;;;;;;5053489;28;20128;-86
2022/05/06 00:27:50;;;;;;;9.00;3.35;;;9.20;99.90;;;;;;5037280;28;20041;-86
2022/05/06 00:30:16;;;;;;;8.18;3.53;;;9.20;99.90;;;;;;5020499;28;20378;-86
2022/05/06 00:32:41;;;;;;;9.68;4.38;;;9.20;99.90;;;;;;5053455;28;20087;-86
2022/05/06 00:35:07;;;;;;;6.85;3.65;;;9.10;99.90;;;;;;5019985;28;20056;-86
2022/05/06 00:37:33;;;;;;;7.55;4.53;;;9.10;99.90;;;;;;5054239;28;20048;-86
2022/05/06 00:39:59;;;;;;;7.72;4.32;;;9.10;99.90;;;;;;5053139;28;20049;-86
2022/05/06 00:42:24;;;;;;;5.85;3.30;;;9.80;99.90;;;;;;5053134;28;20129;-86
2022/05/06 00:44:50;;;;;;;7.75;3.90;;;9.60;99.90;;;;;;5053295;28;20453;-86
2022/05/06 00:47:20;;;;;;;10.90;4.18;;;11.10;99.90;;;;;;5053376;28;20504;-86
2022/05/06 00:49:46;;;;;;;6.93;3.67;;;9.10;99.90;;;;;;5036939;28;20132;-86
2022/05/06 00:52:12;;;;;;;10.13;4.72;;;11.00;99.90;;;;;;5053529;28;20041;-86
2022/05/06 00:54:38;;;;;;;10.07;3.10;;;11.00;99.90;;;;;;5053141;28;20045;-85
2022/05/06 00:57:06;;;;;;;6.47;2.83;;;9.20;99.90;;;;;;5052626;28;20048;-86
2022/05/06 00:59:32;;;;;;;5.45;3.35;;;8.90;99.90;;;;;;5053304;28;20105;-86
2022/05/06 01:01:58;;;;;;;7.65;4.68;;;8.90;99.90;;;;;;5052921;28;20504;-86
2022/05/06 01:04:24;;;;;;;12.15;4.50;;;10.70;99.90;;;;;;5053149;28;20049;-86
2022/05/06 01:06:50;;;;;;;9.10;4.50;;;8.90;99.90;;;;;;5052694;28;20420;-86
2022/05/06 01:09:17;;;;;;;12.63;4.22;;;10.80;99.90;;;;;;5036463;28;20090;-86
2022/05/06 01:11:43;;;;;;;8.85;3.65;;;8.90;99.90;;;;;;5036409;28;20049;-87
2022/05/06 01:14:09;;;;;;;8.90;3.88;;;8.80;99.90;;;;;;5053249;28;20053;-86
2022/05/06 01:16:36;;;;;;;5.53;3.38;;;9.60;99.90;;;;;;5055522;28;20071;-86
2022/05/06 01:19:03;;;;;;;7.82;3.97;;;10.70;99.90;;;;;;5057100;28;20041;-87
2022/05/06 01:21:38;;;;;;;10.02;3.95;;;10.90;99.90;;;;;;5056560;28;20064;-86
2022/05/06 01:24:04;;;;;;;12.07;4.43;;;10.10;99.90;;;;;;5039767;28;20057;-86
2022/05/06 01:26:54;;;;;;;6.40;3.28;;;8.70;99.90;;;;;;5040070;28;20049;-86
2022/05/06 01:29:22;;;;;;;5.75;3.92;;;8.70;99.90;;;;;;5058324;28;20063;-86
2022/05/06 01:31:53;;;;;;;8.75;4.30;;;9.80;99.90;;;;;;5040166;28;20056;-87
2022/05/06 01:34:21;;;;;;;8.70;3.72;;;8.60;99.90;;;;;;5056970;28;20614;-86
2022/05/06 01:36:50;;;;;;;8.15;4.28;;;8.60;99.90;;;;;;5056944;28;20485;-86
2022/05/06 01:39:19;;;;;;;7.50;4.03;;;8.60;99.90;;;;;;5039885;28;20056;-85
2022/05/06 01:41:51;;;;;;;5.57;3.42;;;10.30;99.90;;;;;;5056877;28;20052;-86
2022/05/06 01:44:19;;;;;;;10.85;3.78;;;11.00;99.90;;;;;;5056612;28;20052;-86
2022/05/06 01:46:45;;;;;;;8.52;4.15;;;8.40;99.90;;;;;;5056760;28;20067;-86
2022/05/06 01:49:14;;;;;;;6.25;2.72;;;9.70;99.90;;;;;;5057150;28;20079;-86
2022/05/06 01:51:42;;;;;;;8.65;4.05;;;10.50;99.90;;;;;;5056919;28;20125;-86
2022/05/06 01:54:08;;;;;;;9.57;4.90;;;10.00;99.90;;;;;;5056992;28;20125;-86
2022/05/06 01:56:34;;;;;;;9.38;4.35;;;8.70;99.90;;;;;;5057239;28;20095;-86
2022/05/06 01:59:01;;;;;;;6.80;2.97;;;8.40;99.90;;;;;;5056733;28;20049;-86
2022/05/06 02:01:27;;;;;;;11.15;4.45;;;8.40;99.90;;;;;;5056509;28;20131;-86
2022/05/06 02:06:37;;;;;;;7.13;3.25;;;8.80;99.90;;;;;;5057510;28;20401;-86
2022/05/06 02:09:03;;;;;;;10.52;4.13;;;8.80;99.90;;;;;;5039953;28;20052;-86
2022/05/06 02:11:28;;;;;;;11.35;4.05;;;8.30;99.90;;;;;;5057062;28;20049;-86
2022/05/06 02:13:55;;;;;;;8.07;4.07;;;8.30;99.90;;;;;;5072610;28;20045;-86
2022/05/06 02:16:21;;;;;;;8.43;3.95;;;8.30;99.90;;;;;;5056044;28;20048;-86
2022/05/06 02:18:46;;;;;;;10.13;4.25;;;8.70;99.90;;;;;;5039770;28;20049;-86
2022/05/06 02:21:12;;;;;;;8.93;4.10;;;8.30;99.90;;;;;;5056275;28;20076;-86
2022/05/06 02:23:38;;;;;;;8.50;4.90;;;9.90;99.90;;;;;;5039534;28;20468;-86
2022/05/06 02:26:04;;;;;;;10.43;4.70;;;8.30;99.90;;;;;;5056855;28;20135;-86
2022/05/06 02:28:30;;;;;;;8.98;3.78;;;9.70;99.90;;;;;;5056071;28;20144;-88
2022/05/06 02:33:41;;;;;;;10.73;4.57;;;10.00;99.90;;;;;;5055876;28;20098;-86
2022/05/06 02:36:06;;;;;;;7.78;4.18;;;9.50;99.90;;;;;;5057658;28;20048;-86
2022/05/06 02:38:32;;;;;;;11.50;4.22;;;8.10;99.90;;;;;;5072859;28;20041;-86
2022/05/06 02:40:59;;;;;;;11.20;4.82;;;9.20;99.90;;;;;;5055104;28;20045;-86
2022/05/06 02:43:25;;;;;;;9.40;4.22;;;9.30;99.90;;;;;;5039563;28;20049;-86
2022/05/06 02:45:50;;;;;;;8.98;4.03;;;8.40;99.90;;;;;;5055564;28;20094;-87
2022/05/06 02:48:16;;;;;;;12.15;3.75;;;9.70;99.90;;;;;;5055935;28;20377;-87
2022/05/06 02:50:42;;;;;;;7.30;3.50;;;7.90;99.90;;;;;;5055039;28;20059;-85
2022/05/06 02:53:08;;;;;;;8.77;4.03;;;9.50;99.90;;;;;;5055592;28;20053;-86
2022/05/06 02:55:34;;;;;;;7.82;3.90;;;8.90;99.90;;;;;;5055466;28;20370;-86
2022/05/06 02:58:01;;;;;;;9.95;4.65;;;9.40;99.90;;;;;;5055379;28;20047;-86
2022/05/06 03:00:28;;;;;;;6.25;2.65;;;7.90;99.90;;;;;;5055130;28;20053;-86
2022/05/06 03:02:55;;;;;;;8.50;3.92;;;8.80;99.90;;;;;;5055316;28;20396;-86
2022/05/06 03:05:21;;;;;;;11.77;4.00;;;7.90;99.90;;;;;;5055473;28;20048;-86
2022/05/06 03:07:47;;;;;;;7.15;3.40;;;10.00;99.90;;;;;;5038061;28;20404;-86
2022/05/06 03:10:12;;;;;;;8.60;3.55;;;7.90;99.90;;;;;;5054926;28;20048;-87
2022/05/06 03:12:43;;;;;;;6.60;3.55;;;7.90;99.90;;;;;;5038797;28;20484;-87
2022/05/06 03:15:09;;;;;;;8.13;4.00;;;9.40;99.90;;;;;;5038687;28;20084;-86
2022/05/06 03:17:35;;;;;;;9.90;4.47;;;7.90;99.90;;;;;;5038352;28;20287;-86
2022/05/06 03:20:05;;;;;;;4.63;3.40;;;7.80;99.90;;;;;;5038289;28;20041;-86
2022/05/06 03:22:46;;;;;;;9.85;3.88;;;9.60;99.90;;;;;;5055326;28;20083;-86
2022/05/06 03:25:13;;;;;;;10.68;4.15;;;7.80;99.90;;;;;;5055278;28;20064;-86
2022/05/06 03:30:24;;;;;;;5.90;3.55;;;10.40;99.90;;;;;;5055867;28;20048;-86
2022/05/06 03:32:50;;;;;;;9.82;3.97;;;8.50;99.90;;;;;;5054704;28;20052;-86
2022/05/06 03:35:17;;;;;;;9.95;4.43;;;10.30;99.90;;;;;;5053599;28;20057;-86
2022/05/06 03:37:44;;;;;;;7.28;4.07;;;7.70;99.90;;;;;;5054481;28;20133;-87
2022/05/06 03:40:11;;;;;;;10.02;4.13;;;9.50;99.90;;;;;;5055025;28;20049;-86
2022/05/06 03:42:37;;;;;;;8.27;4.22;;;7.70;99.90;;;;;;5054988;28;20056;-86
2022/05/06 03:45:03;;;;;;;8.00;3.50;;;7.70;99.90;;;;;;5038802;28;20057;-86
2022/05/06 03:47:29;;;;;;;9.77;4.45;;;7.70;99.90;;;;;;5039042;28;20397;-86
2022/05/06 03:52:39;;;;;;;8.60;3.78;;;7.50;99.90;;;;;;5055642;28;20435;-86
2022/05/06 03:55:06;;;;;;;7.78;4.20;;;7.60;99.90;;;;;;5038128;28;20045;-86
2022/05/06 03:57:31;;;;;;;8.07;4.85;;;7.60;99.90;;;;;;5055875;28;20052;-86
2022/05/06 03:59:57;;;;;;;10.38;4.70;;;8.90;99.90;;;;;;5038292;28;20045;-86
2022/05/06 04:02:23;;;;;;;7.20;3.88;;;7.60;99.90;;;;;;5056247;28;20059;-86
2022/05/06 04:04:48;;;;;;;11.02;5.03;;;9.20;99.90;;;;;;5071664;28;20041;-86
2022/05/06 04:07:14;;;;;;;7.53;4.28;;;7.70;99.90;;;;;;5038836;28;20043;-87
2022/05/06 04:09:42;;;;;;;10.23;4.40;;;7.70;99.90;;;;;;5055433;28;20041;-87
2022/05/06 04:12:10;;;;;;;14.00;6.78;;;7.70;99.90;;;;;;5055552;28;20091;-88
2022/05/06 04:14:35;;;;;;;12.68;5.30;;;7.70;99.90;;;;;;5054904;28;20048;-88
2022/05/06 04:17:04;;;;;;;17.70;5.25;;;8.90;99.90;;;;;;5053744;28;20044;-87
2022/05/06 04:19:30;;;;;;;11.20;4.55;;;9.70;99.90;;;;;;5038399;28;20040;-86
2022/05/06 04:24:39;;;;;;;11.40;5.07;;;8.60;99.90;;;;;;5055048;28;20401;-86
2022/05/06 04:27:06;;;;;;;10.93;5.15;;;7.90;99.90;;;;;;5053192;28;20053;-86
2022/05/06 04:29:32;;;;;;;13.05;4.35;;;7.90;99.90;;;;;;5037072;28;20128;-86
2022/05/06 04:31:58;;;;;;;8.02;4.78;;;7.90;99.90;;;;;;5037259;28;20128;-86
2022/05/06 04:34:23;;;;;;;10.02;4.40;;;10.30;99.90;;;;;;5054307;28;20045;-85
2022/05/06 04:36:49;;;;;;;9.52;4.30;;;8.70;99.90;;;;;;5053657;28;20044;-86
2022/05/06 04:39:16;;;;;;;14.18;5.53;;;8.30;99.90;;;;;;5037148;28;20080;-86
2022/05/06 04:41:43;;;;;;;15.43;5.07;;;8.80;99.90;;;;;;5037008;28;20080;-86
2022/05/06 04:44:08;;;;;;;8.98;5.93;;;8.20;99.90;;;;;;5053743;28;20128;-87
2022/05/06 04:46:34;;;;;;;12.27;5.78;;;9.50;99.90;;;;;;5037163;28;20139;-86
2022/05/06 04:49:00;;;;;;;9.65;4.47;;;8.30;99.90;;;;;;5053344;28;20049;-85
2022/05/06 04:51:26;;;;;;;11.48;4.65;;;7.00;99.90;;;;;;5036447;28;20052;-85
2022/05/06 04:53:54;;;;;;;11.32;5.40;;;8.30;99.90;;;;;;5036772;28;20088;-86
2022/05/06 04:56:22;;;;;;;12.68;5.30;;;10.30;99.90;;;;;;5036217;28;20053;-86
2022/05/06 04:58:48;;;;;;;9.80;5.15;;;8.30;99.90;;;;;;5054388;28;20091;-86
2022/05/06 05:01:14;;;;;;;17.60;5.57;;;8.40;99.90;;;;;;5054149;28;20465;-86
2022/05/06 05:03:40;;;;;;;14.48;6.03;;;8.40;99.90;;;;;;5038045;28;20082;-87
2022/05/06 05:06:07;;;;;;;10.48;5.22;;;8.50;99.90;;;;;;5037772;28;20052;-86
2022/05/06 05:08:33;;;;;;;14.00;6.07;;;8.40;99.90;;;;;;5039192;28;20101;-87
2022/05/06 05:11:02;;;;;;;21.48;6.45;;;9.20;99.90;;;;;;5037946;28;20084;-87
2022/05/06 05:13:34;;;;;;;13.70;5.18;;;8.30;99.90;;;;;;5038116;28;20401;-87
2022/05/06 05:15:59;;;;;;;12.40;6.25;;;8.80;99.90;;;;;;5037358;28;20405;-89
2022/05/06 05:18:25;;;;;;;12.13;6.38;;;11.10;99.90;;;;;;5037430;28;20079;-86
2022/05/06 05:20:51;;;;;;;13.05;6.18;;;8.50;99.90;;;;;;5054029;28;20084;-86
2022/05/06 05:23:17;;;;;;;11.45;5.22;;;10.20;99.90;;;;;;5036767;28;20059;-87
2022/05/06 05:25:43;;;;;;;15.30;6.32;;;8.60;99.90;;;;;;5037359;28;20084;-87
2022/05/06 05:28:08;;;;;;;9.93;5.03;;;8.60;99.90;;;;;;5052836;28;20135;-86
2022/05/06 05:30:35;;;;;;;9.50;4.35;;;8.70;99.90;;;;;;5054426;28;20092;-87
2022/05/06 05:33:01;;;;;;;13.15;5.85;;;9.80;99.90;;;;;;5053429;28;20047;-86
2022/05/06 05:35:29;;;;;;;10.27;4.38;;;10.50;99.90;;;;;;5037538;28;20092;-87
2022/05/06 05:37:55;;;;;;;6.78;4.20;;;9.10;99.90;;;;;;5039141;28;20098;-87
2022/05/06 05:40:21;;;;;;;7.32;4.65;;;8.70;99.90;;;;;;5039161;28;20045;-86
2022/05/06 05:42:47;;;;;;;8.88;4.85;;;9.50;99.90;;;;;;5055317;28;20049;-87
2022/05/06 05:50:51;;;;;;;6.75;3.92;;;10.80;99.90;;;;;;5049956;28;20052;-87
2022/05/06 05:53:17;;;;;;;10.60;4.30;;;10.70;99.90;;;;;;5055482;28;20055;-88
2022/05/06 05:55:43;;;;;;;11.63;4.95;;;10.40;99.90;;;;;;5054846;28;20112;-86
2022/05/06 05:58:08;;;;;;;7.60;4.05;;;9.70;99.90;;;;;;5039494;28;20045;-87
2022/05/06 06:00:34;;;;;;;6.60;4.03;;;8.20;99.90;;;;;;5056374;28;20103;-86
2022/05/06 06:03:00;;;;;;;6.40;4.35;;;9.50;99.90;;;;;;5042394;28;20515;-87
2022/05/06 06:05:28;;;;;;;8.40;5.00;;;10.50;99.90;;;;;;5042708;28;20049;-88
2022/05/06 06:07:54;;;;;;;9.60;4.90;;;8.10;99.90;;;;;;5058307;28;20374;-86
2022/05/06 06:10:19;;;;;;;6.22;3.33;;;8.50;99.90;;;;;;5059549;28;20048;-87
2022/05/06 06:12:48;;;;;;;8.75;4.28;;;7.70;99.90;;;;;;5042030;28;20052;-87
2022/05/06 06:15:15;;;;;;;8.13;3.95;;;8.70;99.90;;;;;;5042747;28;20041;-87
2022/05/06 06:17:41;;;;;;;10.48;4.68;;;8.80;99.90;;;;;;5061292;28;20053;-85
2022/05/06 06:20:07;;;;;;;13.60;5.78;;;8.60;99.90;;;;;;5058323;28;20055;-86
2022/05/06 06:22:33;;;;;;;11.48;5.22;;;8.80;99.90;;;;;;5045035;28;20040;-87
2022/05/06 06:24:59;;;;;;;7.80;4.07;;;9.00;99.90;;;;;;5060226;28;20071;-88
2022/05/06 06:27:27;;;;;;;11.27;4.78;;;9.10;99.90;;;;;;5059873;28;20053;-86
2022/05/06 06:29:53;;;;;;;14.40;6.20;;;9.40;99.90;;;;;;5059437;28;20060;-87
2022/05/06 06:32:19;;;;;;;7.78;4.72;;;10.70;99.90;;;;;;5042763;28;20044;-87
2022/05/06 06:34:44;;;;;;;10.35;5.18;;;9.40;99.90;;;;;;5058959;28;20041;-89
2022/05/06 06:37:12;;;;;;;9.25;4.97;;;9.90;99.90;;;;;;5058895;28;20053;-87
2022/05/06 06:39:37;;;;;;;13.32;5.65;;;11.10;99.90;;;;;;5042058;28;20055;-85
2022/05/06 06:42:03;;;;;;;11.70;5.28;;;8.20;99.90;;;;;;5040729;28;20060;-86
2022/05/06 06:44:29;;;;;;;9.60;4.80;;;10.10;99.90;;;;;;5056889;28;20152;-87
2022/05/06 06:46:55;;;;;;;11.48;5.43;;;10.20;99.90;;;;;;5058149;28;20073;-86
2022/05/06 06:49:21;;;;;;;10.02;5.13;;;10.30;99.90;;;;;;5057874;28;20057;-87
2022/05/06 06:51:46;;;;;;;9.68;4.82;;;10.40;99.90;;;;;;5057771;28;20077;-86
2022/05/06 06:54:12;;;;;;;11.48;5.18;;;10.50;99.90;;;;;;5057027;28;20563;-87
2022/05/06 06:56:38;;;;;;;12.15;6.07;;;12.80;99.90;;;;;;5056713;28;20049;-89
2022/05/06 06:59:03;;;;;;;13.05;5.57;;;12.90;99.90;;;;;;5056619;28;20067;-86
2022/05/06 07:01:32;;;;;;;14.68;5.45;;;11.70;99.90;;;;;;5041382;28;20542;-87
2022/05/06 07:04:00;;;;;;;14.60;4.68;;;10.80;99.90;;;;;;5039857;28;20060;-85
2022/05/06 07:11:55;;;;;;;12.48;4.72;;;13.00;99.90;;;;;;5056397;28;20049;-87
2022/05/06 07:14:21;;;;;;;16.08;6.80;;;11.20;99.90;;;;;;5055560;28;20049;-88
2022/05/06 07:16:51;;;;;;;10.68;5.30;;;12.00;99.90;;;;;;5040218;28;20496;-88
2022/05/06 07:19:20;;;;;;;12.27;6.07;;;11.40;99.90;;;;;;5057566;28;20087;-93
2022/05/06 07:21:46;;;;;;;15.10;5.53;;;11.90;99.90;;;;;;5056148;28;20090;-89
2022/05/06 07:24:16;;;;;;;13.90;6.13;;;11.40;99.90;;;;;;5055856;28;20088;-89
2022/05/06 07:26:42;;;;;;;13.27;5.63;;;11.50;99.90;;;;;;5056149;28;20114;-89
2022/05/06 07:29:07;;;;;;;13.40;5.47;;;12.10;99.90;;;;;;5039298;28;20492;-85
2022/05/06 07:31:33;;;;;;;9.75;5.32;;;11.70;99.90;;;;;;5055040;28;20408;-86
2022/05/06 07:33:59;;;;;;;14.55;6.05;;;11.10;99.90;;;;;;5038310;28;20091;-88
2022/05/06 07:36:26;;;;;;;10.90;6.10;;;12.30;99.90;;;;;;5054969;28;20079;-86
2022/05/06 07:38:52;;;;;;;10.10;5.68;;;12.20;99.90;;;;;;5054479;28;20098;-86
2022/05/06 07:41:17;;;;;;;12.25;6.22;;;13.10;99.90;;;;;;5037294;28;20439;-86
2022/05/06 07:43:43;;;;;;;13.88;5.72;;;12.50;99.90;;;;;;5054756;28;20087;-94
2022/05/06 07:46:10;;;;;;;14.73;6.25;;;12.70;99.90;;;;;;5037715;28;20080;-88
2022/05/06 07:48:36;;;;;;;15.50;5.55;;;12.90;99.90;;;;;;5054402;28;20053;-88
2022/05/06 07:51:03;;;;;;;12.80;6.00;;;12.90;99.90;;;;;;5038027;28;20096;-84
2022/05/06 07:53:28;;;;;;;9.23;4.90;;;13.00;99.90;;;;;;5055077;28;20119;-87
2022/05/06 07:55:54;;;;;;;10.40;5.63;;;12.80;99.90;;;;;;5055801;28;20045;-86
2022/05/06 07:58:20;;;;;;;9.98;5.00;;;12.90;99.90;;;;;;5054655;28;20063;-85
2022/05/06 08:00:45;;;;;;;8.18;4.45;;;13.00;99.90;;;;;;5054318;28;20087;-86
2022/05/06 08:05:59;;;;;;;11.05;4.85;;;13.20;99.90;;;;;;5069002;28;20061;-87
2022/05/06 08:08:26;;;;;;;14.15;5.88;;;14.70;99.90;;;;;;5054489;28;20052;-85
2022/05/06 08:10:52;;;;;;;12.43;5.18;;;13.30;99.90;;;;;;5054313;28;20488;-85
2022/05/06 08:13:19;;;;;;;7.65;4.68;;;13.40;99.90;;;;;;5037727;28;20180;-89
2022/05/06 08:15:46;;;;;;;12.95;5.47;;;13.60;99.90;;;;;;5037602;28;20055;-89
2022/05/06 08:18:11;;;;;;;11.90;5.78;;;13.70;99.90;;;;;;5038355;28;20045;-90
2022/05/06 08:20:39;;;;;;;11.45;5.22;;;13.70;99.90;;;;;;5053754;28;20148;-87
2022/05/06 08:23:06;;;;;;;11.52;4.93;;;13.80;99.90;;;;;;5037678;28;20107;-90
2022/05/06 08:25:32;;;;;;;10.45;5.03;;;13.80;99.90;;;;;;5037568;28;20053;-90
2022/05/06 08:27:58;;;;;;;12.02;5.55;;;12.20;99.90;;;;;;5037594;28;20083;-91
2022/05/06 08:30:24;;;;;;;12.50;5.43;;;14.00;99.90;;;;;;5037679;28;20052;-87
2022/05/06 08:32:51;;;;;;;10.05;4.80;;;14.20;99.90;;;;;;5053800;28;20060;-87
2022/05/06 08:35:17;;;;;;;9.20;4.65;;;15.50;99.90;;;;;;5054470;28;20088;-89
2022/05/06 08:37:50;;;;;;;6.63;3.65;;;;;;;;;;5054114;28;20053;-88
2022/05/06 08:40:22;;;;;;;9.52;3.83;;;14.40;99.90;;;;;;5037477;28;20492;-85
2022/05/06 08:42:49;;;;;;;8.32;4.05;;;;;;;;;;5037030;28;20059;-87
2022/05/06 08:50:56;;;;;;;6.25;3.65;;;15.20;99.90;;;;;;5072535;28;20056;-87
2022/05/06 08:53:23;;;;;;;8.88;3.88;;;15.00;99.90;;;;;;5036811;28;20102;-89
2022/05/06 08:55:57;;;;;;;11.68;3.83;;;15.10;99.90;;;;;;5037963;28;20492;-89
2022/05/06 08:58:24;;;;;;;6.43;2.85;;;15.20;99.90;;;;;;5036891;28;20041;-88
2022/05/06 09:00:59;;;;;;;7.47;3.55;;;15.40;99.90;;;;;;5053108;28;20049;-86
2022/05/06 09:03:25;;;;;;;7.63;3.85;;;15.70;99.90;;;;;;5052985;28;20079;-88
2022/05/06 09:05:53;;;;;;;8.77;3.63;;;16.00;99.90;;;;;;5037394;28;20397;-86
2022/05/06 09:08:20;;;;;;;5.40;3.00;;;16.20;99.90;;;;;;5036549;28;20056;-87
2022/05/06 09:11:09;;;;;;;9.60;3.10;;;16.30;99.90;;;;;;5037057;28;20088;-87
2022/05/06 09:13:36;;;;;;;7.15;3.03;;;16.70;99.90;;;;;;5053391;28;20089;-89
2022/05/06 09:16:40;;;;;;;6.35;2.80;;;16.90;99.90;;;;;;5036948;28;20397;-86
2022/05/06 09:19:15;;;;;;;7.47;3.13;;;16.80;99.90;;;;;;5053172;28;20401;-88
2022/05/06 09:22:03;;;;;;;4.10;2.15;;;16.80;99.90;;;;;;5036623;28;20139;-86
2022/05/06 09:24:30;;;;;;;5.13;2.42;;;16.70;99.90;;;;;;5053121;28;20473;-89
2022/05/06 09:27:00;;;;;;;4.55;2.50;;;16.60;99.90;;;;;;5053284;28;20049;-86
2022/05/06 09:29:31;;;;;;;5.77;2.60;;;16.60;99.90;;;;;;5053934;28;20139;-88
2022/05/06 09:32:12;;;;;;;4.07;2.72;;;16.60;99.90;;;;;;5036597;28;20386;-86
2022/05/06 09:34:38;;;;;;;;;;;16.70;99.90;;;;;;5054041;28;20052;-85
2022/05/06 09:37:03;;;;;;;3.70;1.98;;;16.70;99.90;;;;;;5039295;28;19924;-87
2022/05/06 09:39:29;;;;;;;2.40;1.40;;;16.80;99.90;;;;;;5057666;28;20055;-91
2022/05/06 09:42:04;;;;;;;1.77;1.00;;;16.80;99.90;;;;;;5041253;28;20404;-91
2022/05/06 09:44:30;;;;;;;2.40;1.15;;;15.10;99.90;;;;;;5041078;28;20049;-91
2022/05/06 09:47:19;;;;;;;2.38;1.38;;;17.20;99.90;;;;;;5056735;28;20043;-89
2022/05/06 09:49:45;;;;;;;2.55;1.42;;;17.00;99.90;;;;;;5042223;28;20041;-88
2022/05/06 09:52:16;;;;;;;2.45;1.30;;;17.10;99.90;;;;;;5056583;28;20572;-91
2022/05/06 09:54:48;;;;;;;2.08;1.15;;;17.70;99.90;;;;;;5041240;28;20102;-94
2022/05/06 09:57:18;;;;;;;2.35;1.58;;;18.30;99.90;;;;;;5040813;28;20045;-88
2022/05/06 09:59:45;;;;;;;1.60;1.13;;;17.40;99.90;;;;;;5058753;28;20067;-89
2022/05/06 10:02:11;;;;;;;2.90;1.58;;;17.40;99.90;;;;;;5041423;28;20049;-85
2022/05/06 10:04:40;;;;;;;3.83;1.40;;;17.40;99.90;;;;;;5057853;28;20037;-94
2022/05/06 10:07:14;;;;;;;2.03;1.25;;;17.40;99.90;;;;;;5041295;28;20054;-86
2022/05/06 10:10:05;;;;;;;2.22;1.10;;;17.50;99.90;;;;;;5040935;28;20080;-96
2022/05/06 10:12:37;;;;;;;2.33;1.33;;;18.30;99.90;;;;;;5041391;28;20110;-91
2022/05/06 10:15:13;;;;;;;2.05;0.98;;;18.20;99.90;;;;;;5041550;28;20048;-96
2022/05/06 10:17:58;;;;;;;2.75;1.20;;;19.80;99.90;;;;;;5041218;28;20515;-90
2022/05/06 10:20:36;;;;;;;2.10;1.38;;;17.80;99.90;;;;;;5057009;28;20531;-85
2022/05/06 10:23:07;;;;;;;2.28;1.50;;;;;;;;;;5057084;28;20048;-91
2022/05/06 10:25:42;;;;;;;1.33;0.80;;;18.00;99.90;;;;;;5040348;28;20052;-86
2022/05/06 10:34:11;;;;;;;3.10;1.80;;;18.20;99.90;;;;;;5057118;28;20055;-84
2022/05/06 10:36:47;;;;;;;2.00;1.00;;;19.70;99.90;;;;;;5038335;28;20461;-89
2022/05/06 10:39:29;;;;;;;1.40;0.90;;;18.50;99.90;;;;;;5038325;28;20048;-90
2022/05/06 10:42:16;;;;;;;1.38;0.90;;;18.50;99.90;;;;;;5038522;28;20053;-88
2022/05/06 10:44:49;;;;;;;2.58;1.42;;;18.30;99.90;;;;;;5056165;28;20084;-89
2022/05/06 10:47:15;;;;;;;1.52;1.00;;;18.50;99.90;;;;;;5039324;28;20049;-89
2022/05/06 10:49:46;;;;;;;1.33;1.05;;;18.40;99.90;;;;;;5055218;28;20079;-87
2022/05/06 10:54:47;;;;;;;2.45;1.25;;;18.60;99.90;;;;;;5055653;28;20049;-89
2022/05/06 10:57:13;;;;;;;2.17;1.20;;;18.90;99.90;;;;;;5039461;28;20049;-87
2022/05/06 11:00:00;;;;;;;2.17;1.25;;;;;;;;;;5040507;28;20446;-92
2022/05/06 11:02:31;;;;;;;2.90;1.40;;;18.70;99.90;;;;;;5039703;28;20056;-88
2022/05/06 11:05:00;;;;;;;2.55;1.55;;;19.00;99.90;;;;;;5038812;28;20048;-87
2022/05/06 11:07:28;;;;;;;3.42;1.50;;;19.00;99.90;;;;;;5039633;28;20053;-88
2022/05/06 11:09:55;;;;;;;1.52;0.93;;;18.80;99.90;;;;;;5039259;28;20060;-88
2022/05/06 11:12:31;;;;;;;1.50;1.08;;;;;;;;;;5055759;28;20459;-91
2022/05/06 11:14:57;;;;;;;1.08;0.98;;;18.80;99.90;;;;;;5039454;28;20458;-88
2022/05/06 11:17:24;;;;;;;1.90;0.90;;;18.80;99.90;;;;;;5061807;28;20139;-88
2022/05/06 11:19:51;;;;;;;1.95;1.02;;;18.80;99.90;;;;;;5051149;28;20598;-90
2022/05/06 11:22:17;;;;;;;1.80;1.27;;;18.80;99.90;;;;;;5039766;28;20044;-88
2022/05/06 11:24:49;;;;;;;2.53;1.63;;;19.90;99.90;;;;;;5039756;28;20049;-91
2022/05/06 11:27:21;;;;;;;1.85;1.00;;;18.90;99.90;;;;;;5039731;28;20057;-91
2022/05/06 11:30:00;;;;;;;2.58;1.30;;;19.00;99.90;;;;;;5055926;28;20045;-87
2022/05/06 11:32:27;;;;;;;2.38;1.30;;;19.00;99.90;;;;;;5056034;28;20496;-89
2022/05/06 11:35:09;;;;;;;1.90;1.20;;;19.00;99.90;;;;;;5056060;28;20052;-90
2022/05/06 11:37:40;;;;;;;1.65;0.80;;;19.20;99.90;;;;;;5056962;28;20395;-90
2022/05/06 11:42:50;;;;;;;2.55;1.20;;;19.10;99.90;;;;;;5056505;28;20191;-91
2022/05/06 11:48:14;;;;;;;2.25;1.20;;;19.40;99.90;;;;;;5056085;28;20064;-89
2022/05/06 11:50:42;;;;;;;2.75;0.90;;;19.30;99.90;;;;;;5040457;28;20053;-90
2022/05/06 11:53:11;;;;;;;2.00;1.10;;;17.70;99.90;;;;;;5039416;28;20075;-87
2022/05/06 11:55:40;;;;;;;3.27;1.10;;;19.40;99.90;;;;;;5039003;28;20068;-88
2022/05/06 11:58:09;;;;;;;2.00;1.30;;;19.80;99.90;;;;;;5038990;28;20100;-89
2022/05/06 12:00:37;;;;;;;1.75;1.05;;;19.60;99.90;;;;;;5039187;28;20041;-92
2022/05/06 12:03:11;;;;;;;1.13;0.70;;;19.80;99.90;;;;;;5039599;28;20044;-93
2022/05/06 12:05:46;;;;;;;2.40;1.02;;;19.90;99.90;;;;;;5039347;28;20135;-93
2022/05/06 12:08:25;;;;;;;5.10;0.90;;;20.00;99.90;;;;;;5054969;28;20045;-91
2022/05/06 12:10:57;;;;;;;1.20;0.60;;;;;;;;;;5037904;28;20041;-93
2022/05/06 12:13:30;;;;;;;0.95;0.60;;;;;;;;;;5038358;28;20407;-88
2022/05/06 12:16:15;;;;;;;0.70;0.60;;;;;;;;;;5038615;28;20408;-92
2022/05/06 12:18:54;;;;;;;1.10;0.73;;;;;;;;;;5037820;28;20115;-90
2022/05/06 12:21:27;;;;;;;0.75;0.70;;;;;;;;;;5037977;28;20180;-90
2022/05/06 12:24:02;;;;;;;1.52;0.80;;;20.30;98.50;;;;;;5054357;28;20076;-87
2022/05/06 12:26:38;;;;;;;0.68;0.50;;;20.40;98.60;;;;;;5037609;28;20088;-87
2022/05/06 12:29:19;;;;;;;1.67;0.70;;;20.20;98.30;;;;;;5053389;28;20052;-91
2022/05/06 12:31:45;;;;;;;1.15;0.47;;;20.30;98.50;;;;;;5054092;28;20439;-90
2022/05/06 12:34:11;;;;;;;0.77;0.55;;;20.60;98.10;;;;;;5037877;28;20045;-91
2022/05/06 12:36:40;;;;;;;0.88;0.88;;;20.40;97.70;;;;;;5055775;28;20060;-91
2022/05/06 12:39:44;;;;;;;2.03;0.75;;;20.10;97.90;;;;;;5037769;28;20075;-88
2022/05/06 12:42:18;;;;;;;0.55;0.55;;;20.30;97.70;;;;;;5028145;28;20088;-88
2022/05/06 12:44:45;;;;;;;0.52;0.47;;;19.10;97.90;;;;;;5038250;28;20122;-87
2022/05/06 12:50:11;;;;;;;2.63;0.70;;;20.60;98.60;;;;;;5055051;28;20060;-91
2022/05/06 12:52:40;;;;;;;0.45;0.45;;;21.50;99.40;;;;;;5037860;28;20044;-91
2022/05/06 12:55:07;;;;;;;0.47;0.40;;;20.50;98.60;;;;;;5054278;28;20103;-91
2022/05/06 12:57:33;;;;;;;0.60;0.60;;;18.70;98.80;;;;;;5037667;28;20503;-91
2022/05/06 12:59:58;;;;;;;0.57;0.50;;;20.60;99.50;;;;;;5054002;28;20127;-87
2022/05/06 13:02:24;;;;;;;0.73;0.52;;;20.60;98.60;;;;;;5020993;28;20061;-87
2022/05/06 13:04:50;;;;;;;0.50;0.50;;;20.60;98.50;;;;;;5053911;28;20472;-86
2022/05/06 13:07:19;;;;;;;0.75;0.40;;;20.60;98.20;;;;;;5054293;28;20048;-94
2022/05/06 13:09:45;;;;;;;1.38;0.70;;;20.90;98.90;;;;;;5037016;28;20076;-93
2022/05/06 13:12:12;;;;;;;1.08;0.50;;;20.90;99.90;;;;;;5040084;28;20052;-89
2022/05/06 13:14:38;;;;;;;0.98;0.60;;;;;;;;;;5041213;28;20045;-90
2022/05/06 13:17:05;;;;;;;0.73;0.50;;;;;;;;;;5058203;28;20037;-89
2022/05/06 13:19:31;;;;;;;0.70;0.60;;;20.80;98.80;;;;;;5041340;28;20090;-89
2022/05/06 13:21:59;;;;;;;0.57;0.50;;;20.80;99.90;;;;;;5057907;28;20044;-85
2022/05/06 13:24:34;;;;;;;2.08;0.70;;;20.80;98.60;;;;;;5058115;28;20080;-87
2022/05/06 13:26:59;;;;;;;0.98;0.50;;;20.90;99.20;;;;;;5040521;28;20060;-87
2022/05/06 13:29:25;;;;;;;0.60;0.52;;;20.50;99.60;;;;;;5056677;28;20049;-87
2022/05/06 13:31:51;;;;;;;0.93;0.60;;;20.10;99.50;;;;;;5073807;28;20128;-88
2022/05/06 13:34:16;;;;;;;1.00;0.57;;;20.30;99.90;;;;;;5057439;28;20048;-91
2022/05/06 13:36:42;;;;;;;1.05;0.80;;;20.10;99.90;;;;;;5040586;28;20468;-89
2022/05/06 13:39:08;;;;;;;0.90;0.60;;;20.50;99.90;;;;;;5040224;28;20182;-88
2022/05/06 13:41:34;;;;;;;1.45;0.80;;;20.60;99.90;;;;;;5057708;28;20439;-89
2022/05/06 13:43:59;;;;;;;1.95;0.90;;;20.70;99.90;;;;;;5058587;28;20044;-88
2022/05/06 13:46:25;;;;;;;1.20;0.68;;;21.10;99.90;;;;;;5043106;28;20542;-88
2022/05/06 13:48:51;;;;;;;1.17;0.73;;;20.90;99.90;;;;;;5047749;28;20037;-87